LIED/DCI METAR and TAF weather

Enter ICAO airport designator
Station Type Date Time Source
LIED METAR 2019/02/22 21:55 UTC NOAA

LIED 222155Z 35005KT CAVOK 06/05 Q1023 RMK SKC VIS MIN 9999 WIND THR35 /////KT WIND THR17 /////KT BLU


Station Type Date Time Source
LIED Decoded METAR 2019/02/22 21:55 UTC NOAA

Decimomannu, Italy (LIED) 39-21N 008-58E 28M
Feb 22, 2019 - 04:55 PM EST / 2019.02.22 2155 UTC
Wind: from the N (350 degrees) at 6 MPH (5 KT):0
Visibility: greater than 7 mile(s):0
Temperature: 42 F (6 C)
Dew Point: 41 F (5 C)
Relative Humidity: 93%
Pressure (altimeter): 30.21 in. Hg (1023 hPa)
ob: LIED 222155Z 35005KT CAVOK 06/05 Q1023 RMK SKC VIS MIN 9999 WIND THR35 /////KT WIND THR17 /////KT BLU
cycle: 22

Station Type Date Time Source
LIED TAF 2015/03/04 18:18 UTC NOAA

TAF TAF LIED 041700Z 0418/0506 33014KT 9999 SCT020 BKN040 BKN060
TEMPO 0420/0502 33020KT 5000 RA OR SHRA FEW022CB


Example: see airport list